createdAt,value
2019-02-20T00:02:12.632Z,32.40
2019-02-20T00:04:48.487Z,35.15
2019-02-20T00:07:24.340Z,35.80
2019-02-20T00:10:00.373Z,35.75
2019-02-20T00:12:36.199Z,38.08
2019-02-20T00:15:12.212Z,42.70
2019-02-20T00:17:48.171Z,42.78
2019-02-20T00:20:24.031Z,39.27
2019-02-20T00:23:00.387Z,39.03
2019-02-20T00:25:36.129Z,38.38
2019-02-20T00:28:11.993Z,36.98
2019-02-20T00:30:47.848Z,39.13
2019-02-20T00:33:24.020Z,38.05
2019-02-20T00:35:59.852Z,35.23
2019-02-20T00:38:35.705Z,36.58
2019-02-20T00:41:11.571Z,36.08
2019-02-20T00:43:49.064Z,36.48
2019-02-20T00:46:26.452Z,37.23
2019-02-20T00:49:03.934Z,37.00
2019-02-20T00:51:41.331Z,36.60
2019-02-20T00:54:17.178Z,36.20
2019-02-20T00:56:52.935Z,38.60
2019-02-20T00:59:28.795Z,38.00
2019-02-20T01:02:04.644Z,39.65
2019-02-20T01:04:40.502Z,38.30
2019-02-20T01:07:16.363Z,38.95
2019-02-20T01:09:52.211Z,38.67
2019-02-20T01:12:28.055Z,37.35
2019-02-20T01:15:05.547Z,34.58
2019-02-20T01:17:42.434Z,33.95
2019-02-20T01:20:18.277Z,32.13
2019-02-20T01:22:59.779Z,32.00
2019-02-20T01:25:31.624Z,31.35
2019-02-20T01:28:07.492Z,30.70
2019-02-20T01:30:43.334Z,30.17
2019-02-20T01:33:19.186Z,29.50
2019-02-20T01:35:55.043Z,30.05
2019-02-20T01:38:30.905Z,30.23
2019-02-20T01:41:06.759Z,31.35
2019-02-20T01:43:42.703Z,28.38
2019-02-20T01:46:19.610Z,30.27
2019-02-20T01:48:55.443Z,28.35
2019-02-20T01:51:31.297Z,28.98
2019-02-20T01:54:07.031Z,28.10
2019-02-20T01:56:42.914Z,28.47
2019-02-20T01:59:18.765Z,28.47
2019-02-20T02:01:54.611Z,27.15
2019-02-20T02:04:30.764Z,26.10
2019-02-20T02:07:06.631Z,26.57
2019-02-20T02:09:42.479Z,25.85
2019-02-20T02:12:18.249Z,24.35
2019-02-20T02:14:54.088Z,24.30
2019-02-20T02:17:29.786Z,25.85
2019-02-20T02:20:08.692Z,23.22
2019-02-20T02:22:44.522Z,23.67
2019-02-20T02:25:20.363Z,23.32
2019-02-20T02:27:56.248Z,23.22
2019-02-20T02:30:32.124Z,23.45
2019-02-20T02:33:07.911Z,23.27
2019-02-20T02:35:43.802Z,23.05
2019-02-20T02:38:19.645Z,23.32
2019-02-20T02:40:55.493Z,24.40
2019-02-20T02:43:31.336Z,23.90
2019-02-20T02:46:07.202Z,23.45
2019-02-20T02:48:43.159Z,23.83
2019-02-20T02:51:19.025Z,23.42
2019-02-20T02:53:54.878Z,23.95
2019-02-20T02:56:30.724Z,23.07
2019-02-20T02:59:06.570Z,24.02
2019-02-20T03:01:42.430Z,24.15
2019-02-20T03:04:18.277Z,23.27
2019-02-20T03:06:54.126Z,22.93
2019-02-20T03:09:29.997Z,21.85
2019-02-20T03:12:05.953Z,23.10
2019-02-20T03:14:41.689Z,22.32
2019-02-20T03:17:17.749Z,21.77
2019-02-20T03:19:53.496Z,23.07
2019-02-20T03:22:29.367Z,23.45
2019-02-20T03:25:05.923Z,20.75
2019-02-20T03:27:41.791Z,22.98
2019-02-20T03:30:17.651Z,23.40
2019-02-20T03:32:53.604Z,22.67
2019-02-20T03:35:29.451Z,22.13
2019-02-20T03:38:05.305Z,22.55
2019-02-20T03:40:41.050Z,23.55
2019-02-20T03:43:16.915Z,25.68
2019-02-20T03:45:52.653Z,23.25
2019-02-20T03:48:28.819Z,22.52
2019-02-20T03:51:04.685Z,22.62
2019-02-20T03:53:50.907Z,21.60
2019-02-20T03:56:18.223Z,23.10
2019-02-20T03:58:54.089Z,22.30
2019-02-20T04:01:29.841Z,22.60
2019-02-20T04:04:05.688Z,24.90
2019-02-20T04:06:41.433Z,24.43
2019-02-20T04:09:17.288Z,22.85
2019-02-20T04:11:53.151Z,23.02
2019-02-20T04:14:29.201Z,23.95
2019-02-20T04:17:04.954Z,25.72
2019-02-20T04:19:40.802Z,24.63
2019-02-20T04:22:16.575Z,25.10
2019-02-20T04:24:52.411Z,24.05
2019-02-20T04:27:28.271Z,24.63
2019-02-20T04:30:06.416Z,24.36
2019-02-20T04:32:42.237Z,33.42
2019-02-20T04:35:18.081Z,28.92
2019-02-20T04:37:53.933Z,24.23
2019-02-20T04:40:29.796Z,24.20
2019-02-20T04:43:05.651Z,25.40
2019-02-20T04:45:41.532Z,24.25
2019-02-20T04:48:17.461Z,24.72
2019-02-20T04:50:53.213Z,22.77
2019-02-20T04:53:29.053Z,24.07
2019-02-20T04:56:04.915Z,24.85
2019-02-20T04:58:40.767Z,23.47
2019-02-20T05:01:16.633Z,23.98
2019-02-20T05:03:52.474Z,24.63
2019-02-20T05:06:28.340Z,24.40
2019-02-20T05:09:04.903Z,24.10
2019-02-20T05:11:42.335Z,25.57
2019-02-20T05:14:18.154Z,25.32
2019-02-20T05:16:53.996Z,25.77
2019-02-20T05:19:29.753Z,24.25
2019-02-20T05:22:05.618Z,23.62
2019-02-20T05:24:41.359Z,24.43
2019-02-20T05:27:17.148Z,23.30
2019-02-20T05:29:52.952Z,27.00
2019-02-20T05:32:28.925Z,24.43
2019-02-20T05:35:05.078Z,22.87
2019-02-20T05:37:40.942Z,25.60
2019-02-20T05:40:16.681Z,24.23
2019-02-20T05:42:52.658Z,24.70
2019-02-20T05:45:28.385Z,26.60
2019-02-20T05:48:04.446Z,25.92
2019-02-20T05:50:40.204Z,28.07
2019-02-20T05:53:16.054Z,26.85
2019-02-20T05:55:51.908Z,28.98
2019-02-20T05:58:27.767Z,26.25
2019-02-20T06:01:03.635Z,26.75
2019-02-20T06:03:39.430Z,27.52
2019-02-20T06:06:15.228Z,27.73
2019-02-20T06:08:51.079Z,28.12
2019-02-20T06:11:26.850Z,28.25
2019-02-20T06:14:02.681Z,26.50
2019-02-20T06:16:38.543Z,25.77
2019-02-20T06:19:14.283Z,26.68
2019-02-20T06:21:50.134Z,26.73
2019-02-20T06:24:25.996Z,25.00
2019-02-20T06:27:02.887Z,25.82
2019-02-20T06:29:38.621Z,24.60
2019-02-20T06:32:14.444Z,22.30
2019-02-20T06:34:50.234Z,23.45
2019-02-20T06:37:26.082Z,22.27
2019-02-20T06:40:01.952Z,22.77
2019-02-20T06:42:38.130Z,22.02
2019-02-20T06:45:13.946Z,21.05
2019-02-20T06:47:49.701Z,26.15
2019-02-20T06:50:25.563Z,24.87
2019-02-20T06:53:01.420Z,24.63
2019-02-20T06:55:37.278Z,22.48
2019-02-20T06:58:13.119Z,21.60
2019-02-20T07:00:48.871Z,22.52
2019-02-20T07:03:24.725Z,22.93
2019-02-20T07:06:20.251Z,23.02
2019-02-20T07:09:18.720Z,20.55
2019-02-20T07:11:57.550Z,21.25
2019-02-20T07:15:09.764Z,20.45
2019-02-20T07:17:51.362Z,22.58
2019-02-20T07:20:34.261Z,22.50
2019-02-20T07:26:37.018Z,22.00
2019-02-20T07:29:49.285Z,38.45
2019-02-20T07:32:25.139Z,34.90
2019-02-20T07:35:00.988Z,27.32
2019-02-20T07:37:37.048Z,25.30
2019-02-20T07:40:13.102Z,28.23
2019-02-20T07:42:48.956Z,35.90
2019-02-20T07:45:25.016Z,24.98
2019-02-20T07:48:01.168Z,27.13
2019-02-20T07:50:37.031Z,26.05
2019-02-20T07:53:12.880Z,25.05
2019-02-20T07:55:49.754Z,25.00
2019-02-20T07:58:25.505Z,25.30
2019-02-20T08:01:01.365Z,23.60
2019-02-20T08:03:37.420Z,23.90
2019-02-20T08:06:13.277Z,24.15
2019-02-20T08:08:49.139Z,24.70
2019-02-20T08:11:24.996Z,27.35
2019-02-20T08:14:00.850Z,26.65
2019-02-20T08:16:37.002Z,25.02
2019-02-20T08:19:12.863Z,24.55
2019-02-20T08:21:48.715Z,25.08
2019-02-20T08:24:49.887Z,22.35
2019-02-20T08:27:41.888Z,22.73
2019-02-20T08:30:17.957Z,23.63
2019-02-20T08:32:53.812Z,21.90
2019-02-20T08:35:29.655Z,22.58
2019-02-20T08:38:05.406Z,22.93
2019-02-20T08:40:41.265Z,22.60
2019-02-20T08:43:17.213Z,24.77
2019-02-20T08:45:53.086Z,23.95
2019-02-20T08:48:30.064Z,21.07
2019-02-20T08:51:05.917Z,21.62
2019-02-20T08:53:42.067Z,20.68
2019-02-20T08:56:17.925Z,21.40
2019-02-20T08:58:53.875Z,20.30
2019-02-20T09:01:29.624Z,21.45
2019-02-20T09:04:05.502Z,23.45
2019-02-20T09:06:41.341Z,27.73
2019-02-20T09:09:17.184Z,21.93
2019-02-20T09:11:53.040Z,26.80
2019-02-20T09:14:29.015Z,32.15
2019-02-20T09:17:04.859Z,24.45
2019-02-20T09:19:40.712Z,23.50
2019-02-20T09:22:16.513Z,23.05
2019-02-20T09:24:52.324Z,23.50
2019-02-20T09:27:28.085Z,29.12
2019-02-20T09:30:05.045Z,29.75
2019-02-20T09:32:41.122Z,21.23
2019-02-20T09:35:16.952Z,23.18
2019-02-20T09:37:52.812Z,21.33
2019-02-20T09:40:28.871Z,25.12
2019-02-20T09:43:04.734Z,27.82
2019-02-20T09:45:42.884Z,19.48
2019-02-20T09:48:18.274Z,20.85
2019-02-20T09:50:54.372Z,21.73
2019-02-20T09:53:30.183Z,20.92
2019-02-20T09:56:06.051Z,21.62
2019-02-20T09:58:41.893Z,21.23
2019-02-20T10:01:17.646Z,21.37
2019-02-20T10:03:53.511Z,18.57
2019-02-20T10:06:29.251Z,20.60
2019-02-20T10:09:06.148Z,18.23
2019-02-20T10:11:42.406Z,25.68
2019-02-20T10:14:18.262Z,19.90
2019-02-20T10:16:54.150Z,16.93
2019-02-20T10:19:30.162Z,16.30
2019-02-20T10:22:05.868Z,16.05
2019-02-20T10:24:41.665Z,15.83
2019-02-20T10:27:17.420Z,15.38
2019-02-20T10:29:53.280Z,18.12
2019-02-20T10:32:29.149Z,18.20
2019-02-20T10:35:06.904Z,17.73
2019-02-20T10:37:42.688Z,18.32
2019-02-20T10:40:18.541Z,15.87
2019-02-20T10:42:54.501Z,17.05
2019-02-20T10:45:30.344Z,18.75
2019-02-20T10:48:06.193Z,17.23
2019-02-20T10:50:42.043Z,17.70
2019-02-20T10:53:17.906Z,16.30
2019-02-20T10:55:53.967Z,19.90
2019-02-20T10:58:29.824Z,16.50
2019-02-20T11:01:05.928Z,15.98
2019-02-20T11:03:41.836Z,13.15
2019-02-20T11:06:17.693Z,15.20
2019-02-20T11:08:53.545Z,15.45
2019-02-20T11:11:29.414Z,15.32
2019-02-20T11:14:05.260Z,13.90
2019-02-20T11:16:41.104Z,12.85
2019-02-20T11:19:16.844Z,12.18
2019-02-20T11:21:52.707Z,13.28
2019-02-20T11:24:28.459Z,11.95
2019-02-20T11:27:04.411Z,11.83
2019-02-20T11:29:40.161Z,10.78
2019-02-20T11:32:16.024Z,12.53
2019-02-20T11:34:51.870Z,13.53
2019-02-20T11:37:27.721Z,12.40
2019-02-20T11:40:03.591Z,10.30
2019-02-20T11:42:39.436Z,10.88
2019-02-20T11:45:16.446Z,10.50
2019-02-20T11:47:52.271Z,8.08
2019-02-20T11:50:28.026Z,12.95
2019-02-20T11:53:03.878Z,13.65
2019-02-20T11:55:39.734Z,10.60
2019-02-20T11:58:15.607Z,11.28
2019-02-20T12:00:51.432Z,11.18
2019-02-20T12:03:27.289Z,12.43
2019-02-20T12:06:03.642Z,11.55
2019-02-20T12:08:39.868Z,11.55
2019-02-20T12:11:15.671Z,14.78
2019-02-20T12:13:52.645Z,11.78
2019-02-20T12:16:28.506Z,12.43
2019-02-20T12:19:05.485Z,11.73
2019-02-20T12:21:41.345Z,11.63
2019-02-20T12:24:17.200Z,13.45
2019-02-20T12:26:53.052Z,14.73
2019-02-20T12:29:30.068Z,12.93
2019-02-20T12:32:06.198Z,14.98
2019-02-20T12:34:42.046Z,14.43
2019-02-20T12:37:17.891Z,12.43
2019-02-20T12:39:53.750Z,13.13
2019-02-20T12:42:29.613Z,12.95
2019-02-20T12:45:07.828Z,9.13
2019-02-20T12:47:43.669Z,11.38
2019-02-20T12:50:19.531Z,7.20
2019-02-20T12:52:55.373Z,6.90
2019-02-20T12:55:31.141Z,3.70
2019-02-20T12:58:07.295Z,3.15
2019-02-20T13:00:43.738Z,2.80
2019-02-20T13:03:19.614Z,3.00
2019-02-20T13:05:55.472Z,4.08
2019-02-20T13:08:31.516Z,3.98
2019-02-20T13:11:07.276Z,3.02
2019-02-20T13:13:43.567Z,3.42
2019-02-20T13:16:19.498Z,3.10
2019-02-20T13:18:55.192Z,3.70
2019-02-20T13:21:31.008Z,7.12
2019-02-20T13:24:07.977Z,11.33
2019-02-20T13:26:52.530Z,8.58
2019-02-20T13:29:21.322Z,3.20
2019-02-20T13:31:57.191Z,2.98
2019-02-20T13:34:33.034Z,3.70
2019-02-20T13:37:08.784Z,2.98
2019-02-20T13:39:44.646Z,3.33
2019-02-20T13:42:20.499Z,2.83
2019-02-20T13:44:56.349Z,2.80
2019-02-20T13:47:32.502Z,2.27
2019-02-20T13:50:11.678Z,2.80
2019-02-20T13:52:52.275Z,3.17
2019-02-20T13:55:34.034Z,3.40
2019-02-20T13:58:03.082Z,3.75
2019-02-20T14:00:38.842Z,3.77
2019-02-20T14:03:14.894Z,3.40
2019-02-20T14:05:50.851Z,2.87
2019-02-20T14:08:26.614Z,2.33
2019-02-20T14:11:02.456Z,2.62
2019-02-20T14:13:38.309Z,9.25
2019-02-20T14:16:14.894Z,7.85
2019-02-20T14:18:51.967Z,4.67
2019-02-20T14:21:27.818Z,3.72
2019-02-20T14:24:03.680Z,3.52
2019-02-20T14:26:39.603Z,6.83
2019-02-20T14:29:15.387Z,8.43
2019-02-20T14:31:51.253Z,11.55
2019-02-20T14:34:27.087Z,6.80
2019-02-20T14:37:03.010Z,8.70
2019-02-20T14:39:38.904Z,6.22
2019-02-20T14:42:14.763Z,5.65
2019-02-20T14:44:50.621Z,8.48
2019-02-20T14:47:26.480Z,10.03
2019-02-20T14:50:02.334Z,10.63
2019-02-20T14:52:38.987Z,19.17
2019-02-20T14:55:15.995Z,28.40
2019-02-20T14:57:52.042Z,13.83
2019-02-20T15:00:28.308Z,15.60
2019-02-20T15:03:04.142Z,9.48
2019-02-20T15:05:40.013Z,3.90
2019-02-20T15:08:15.854Z,3.20
2019-02-20T15:10:51.709Z,2.98
2019-02-20T15:13:27.973Z,6.05
2019-02-20T15:16:03.833Z,6.17
2019-02-20T15:18:39.840Z,3.37
2019-02-20T15:21:15.638Z,4.35
2019-02-20T15:23:51.901Z,4.28
2019-02-20T15:26:27.752Z,12.25
2019-02-20T15:29:03.604Z,4.87
2019-02-20T15:31:39.460Z,10.13
2019-02-20T15:34:15.332Z,13.78
2019-02-20T15:36:51.174Z,10.63
2019-02-20T15:39:27.036Z,8.43
2019-02-20T15:42:02.877Z,20.00
2019-02-20T15:44:39.354Z,33.25
2019-02-20T15:47:15.150Z,36.28
2019-02-20T15:49:51.014Z,39.18
2019-02-20T15:52:26.756Z,44.38
2019-02-20T15:55:02.712Z,32.95
2019-02-20T15:57:38.553Z,32.90
2019-02-20T16:00:19.381Z,29.07
2019-02-20T16:02:55.489Z,32.25
2019-02-20T16:05:31.291Z,30.25
2019-02-20T16:08:07.399Z,29.70
2019-02-20T16:10:43.230Z,18.40
2019-02-20T16:13:19.039Z,17.02
2019-02-20T16:15:54.861Z,15.85
2019-02-20T16:18:30.630Z,14.05
2019-02-20T16:21:06.759Z,14.50
2019-02-20T16:23:42.586Z,15.32
2019-02-20T16:26:19.314Z,13.00
2019-02-20T16:28:55.075Z,14.80
2019-02-20T16:31:30.822Z,17.17
2019-02-20T16:34:06.584Z,14.70
2019-02-20T16:36:42.355Z,13.00
2019-02-20T16:39:18.152Z,15.55
2019-02-20T16:41:53.896Z,16.85
2019-02-20T16:44:29.913Z,15.13
2019-02-20T16:47:05.706Z,13.65
2019-02-20T16:49:41.470Z,16.25
2019-02-20T16:52:17.246Z,19.52
2019-02-20T16:54:54.949Z,17.32
2019-02-20T16:57:30.831Z,15.95
2019-02-20T17:00:09.934Z,19.48
2019-02-20T17:02:46.230Z,19.15
2019-02-20T17:05:22.266Z,17.27
2019-02-20T17:07:58.348Z,19.62
2019-02-20T17:10:34.106Z,21.35
2019-02-20T17:13:11.182Z,19.90
2019-02-20T17:15:47.170Z,19.92
2019-02-20T17:18:22.954Z,19.92
2019-02-20T17:20:58.714Z,22.42
2019-02-20T17:23:34.573Z,27.67
2019-02-20T17:26:10.629Z,34.03
2019-02-20T17:28:46.392Z,29.32
2019-02-20T17:31:22.211Z,25.43
2019-02-20T17:33:57.946Z,22.73
2019-02-20T17:36:33.727Z,21.80
2019-02-20T17:39:09.635Z,25.50
2019-02-20T17:41:45.937Z,20.77
2019-02-20T17:44:22.025Z,20.25
2019-02-20T17:46:57.843Z,20.60
2019-02-20T17:49:33.628Z,22.42
2019-02-20T17:52:09.578Z,24.07
2019-02-20T17:54:45.766Z,22.93
2019-02-20T17:57:21.537Z,21.68
2019-02-20T17:59:57.471Z,26.62
2019-02-20T18:02:33.338Z,22.80
2019-02-20T18:05:09.500Z,27.07
2019-02-20T18:07:49.655Z,24.20
2019-02-20T18:10:22.838Z,26.13
2019-02-20T18:12:58.644Z,24.98
2019-02-20T18:15:34.393Z,26.82
2019-02-20T18:18:10.149Z,20.12
2019-02-20T18:20:45.950Z,20.48
2019-02-20T18:23:22.082Z,21.40
2019-02-20T18:25:57.864Z,21.40
2019-02-20T18:28:33.629Z,22.50
2019-02-20T18:31:09.451Z,22.07
2019-02-20T18:33:45.312Z,23.25
2019-02-20T18:36:21.184Z,25.00
2019-02-20T18:38:57.038Z,24.12
2019-02-20T18:41:32.978Z,26.27
2019-02-20T18:44:09.168Z,28.32
2019-02-20T18:46:45.004Z,25.20
2019-02-20T18:49:21.288Z,22.73
2019-02-20T18:51:57.257Z,22.95
2019-02-20T18:54:33.001Z,24.37
2019-02-20T18:57:08.846Z,25.55
2019-02-20T18:59:44.551Z,24.45
2019-02-20T19:02:20.369Z,26.97
2019-02-20T19:04:57.129Z,27.65
2019-02-20T19:07:33.030Z,28.17
2019-02-20T19:10:20.965Z,26.55
2019-02-20T19:13:15.477Z,23.73
2019-02-20T19:16:09.235Z,24.12
2019-02-20T19:19:06.396Z,24.47
2019-02-20T19:22:03.013Z,23.47
2019-02-20T19:25:04.737Z,24.23
2019-02-20T19:27:49.318Z,23.52
2019-02-20T19:30:53.527Z,25.67
2019-02-20T19:33:35.374Z,33.15
2019-02-20T19:36:46.882Z,32.40
2019-02-20T19:39:37.233Z,26.03
2019-02-20T19:42:26.103Z,24.57
2019-02-20T19:45:23.093Z,25.60
2019-02-20T19:48:23.625Z,25.60
2019-02-20T19:51:05.728Z,24.63
2019-02-20T19:53:59.818Z,23.52
2019-02-20T19:56:53.333Z,25.20
2019-02-20T19:59:50.074Z,28.15
2019-02-20T20:02:34.908Z,24.80
2019-02-20T20:05:16.351Z,39.50
2019-02-20T20:07:55.172Z,30.25
2019-02-20T20:10:45.874Z,24.02
2019-02-20T20:13:36.732Z,23.90
2019-02-20T20:16:34.038Z,21.80
2019-02-20T20:19:31.392Z,29.85
2019-02-20T20:22:28.326Z,36.83
2019-02-20T20:25:07.399Z,32.17
2019-02-20T20:27:58.089Z,32.60
2019-02-20T20:30:40.805Z,29.05
2019-02-20T20:36:36.942Z,18.67
2019-02-20T20:39:36.344Z,21.02
2019-02-20T20:42:17.481Z,19.48
2019-02-20T20:44:56.355Z,33.50
2019-02-20T20:48:11.259Z,25.37
2019-02-20T20:51:01.505Z,41.85
2019-02-20T20:54:03.288Z,37.10
2019-02-20T20:56:57.632Z,33.08
2019-02-20T20:59:40.272Z,33.73
2019-02-20T21:02:19.517Z,27.90
2019-02-20T21:04:58.330Z,26.15
2019-02-20T21:07:53.638Z,20.70
2019-02-20T21:10:51.095Z,28.75
2019-02-20T21:13:49.898Z,25.77
2019-02-20T21:16:28.815Z,22.32
2019-02-20T21:19:30.476Z,23.62
2019-02-20T21:22:20.668Z,19.73
2019-02-20T21:25:19.064Z,23.27
2019-02-20T21:27:57.977Z,30.32
2019-02-20T21:31:08.049Z,28.23
2019-02-20T21:34:15.115Z,26.65
2019-02-20T21:37:05.878Z,25.77
2019-02-20T21:39:47.510Z,28.23
2019-02-20T21:45:26.972Z,26.52
2019-02-20T21:48:05.800Z,26.52
2019-02-20T21:50:47.488Z,27.10
2019-02-20T21:53:35.223Z,24.85
2019-02-20T21:56:17.248Z,25.12
2019-02-20T21:59:17.024Z,25.60
2019-02-20T22:02:08.038Z,27.07
2019-02-20T22:04:49.835Z,23.00
2019-02-20T22:07:31.397Z,21.17
2019-02-20T22:10:29.913Z,19.37
2019-02-20T22:13:31.566Z,19.52
2019-02-20T22:16:25.506Z,19.98
2019-02-20T22:19:09.800Z,19.75
2019-02-20T22:22:08.588Z,19.87
2019-02-20T22:25:18.136Z,18.42
2019-02-20T22:28:16.516Z,18.35
2019-02-20T22:31:11.916Z,19.73
2019-02-20T22:34:02.755Z,18.55
2019-02-20T22:36:41.673Z,16.35
2019-02-20T22:39:29.503Z,18.02
2019-02-20T22:42:20.511Z,16.85
2019-02-20T22:45:08.230Z,18.32
2019-02-20T22:48:03.533Z,19.42
2019-02-20T22:51:06.558Z,20.27
2019-02-20T22:53:58.056Z,18.00
2019-02-20T22:56:45.584Z,18.75
2019-02-20T22:59:36.694Z,18.37
2019-02-20T23:02:18.374Z,19.30
2019-02-20T23:05:20.046Z,19.60
2019-02-20T23:08:01.527Z,19.15
2019-02-20T23:10:56.739Z,20.00
2019-02-20T23:13:41.393Z,20.60
2019-02-20T23:16:17.458Z,20.60
2019-02-20T23:18:53.233Z,19.85
2019-02-20T23:21:29.071Z,19.05
2019-02-20T23:24:05.024Z,19.95
2019-02-20T23:26:40.867Z,18.62
2019-02-20T23:29:16.832Z,19.07
2019-02-20T23:31:52.674Z,18.10
2019-02-20T23:34:28.539Z,20.05
2019-02-20T23:37:04.481Z,20.90
2019-02-20T23:39:40.348Z,22.75
2019-02-20T23:42:16.190Z,20.05
2019-02-20T23:44:52.045Z,20.27
2019-02-20T23:47:27.919Z,21.65
2019-02-20T23:50:03.766Z,22.73
2019-02-20T23:52:39.618Z,20.50
2019-02-20T23:55:15.467Z,21.17
2019-02-20T23:57:51.215Z,21.07
